createdAt,value
2024-02-04T00:00:03.150Z,41.35
2024-02-04T00:02:29.956Z,46.40
2024-02-04T00:04:56.800Z,40.00
2024-02-04T00:07:23.872Z,38.85
2024-02-04T00:09:50.790Z,39.50
2024-02-04T00:12:17.632Z,39.75
2024-02-04T00:14:44.438Z,38.90
2024-02-04T00:17:11.238Z,41.22
2024-02-04T00:19:38.142Z,39.05
2024-02-04T00:22:05.188Z,40.00
2024-02-04T00:24:32.120Z,37.50
2024-02-04T00:26:58.946Z,40.83
2024-02-04T00:29:25.869Z,44.95
2024-02-04T00:31:52.649Z,40.55
2024-02-04T00:34:19.551Z,42.35
2024-02-04T00:36:46.398Z,40.40
2024-02-04T00:39:13.161Z,42.42
2024-02-04T00:41:39.938Z,41.50
2024-02-04T00:44:06.743Z,41.65
2024-02-04T00:46:33.553Z,40.47
2024-02-04T00:49:00.513Z,36.17
2024-02-04T00:51:27.494Z,46.72
2024-02-04T00:53:54.336Z,41.28
2024-02-04T00:56:21.146Z,40.75
2024-02-04T00:58:47.911Z,39.63
2024-02-04T01:01:14.849Z,42.85
2024-02-04T01:03:41.753Z,45.00
2024-02-04T01:06:08.514Z,42.58
2024-02-04T01:08:35.297Z,40.83
2024-02-04T01:11:02.124Z,40.08
2024-02-04T01:13:29.621Z,44.83
2024-02-04T01:15:56.484Z,47.80
2024-02-04T01:18:23.328Z,55.95
2024-02-04T01:20:50.237Z,59.10
2024-02-04T01:23:17.023Z,59.30
2024-02-04T01:25:44.219Z,56.25
2024-02-04T01:28:11.469Z,64.72
2024-02-04T01:30:38.362Z,61.10
2024-02-04T01:33:05.465Z,61.38
2024-02-04T01:35:32.281Z,69.38
2024-02-04T01:37:59.103Z,63.63
2024-02-04T01:40:25.938Z,69.00
2024-02-04T01:42:52.768Z,63.35
2024-02-04T01:45:19.577Z,68.15
2024-02-04T01:47:46.533Z,65.68
2024-02-04T01:50:13.398Z,67.57
2024-02-04T01:52:42.108Z,73.03
2024-02-04T01:55:09.752Z,73.80
2024-02-04T01:57:36.710Z,75.15
2024-02-04T02:00:04.524Z,73.53
2024-02-04T02:02:33.726Z,82.03
2024-02-04T02:05:00.864Z,83.63
2024-02-04T02:07:27.786Z,78.18
2024-02-04T02:09:55.854Z,80.28
2024-02-04T02:12:28.367Z,82.88
2024-02-04T02:15:27.104Z,81.30
2024-02-04T02:18:03.559Z,85.00
2024-02-04T02:21:09.234Z,84.38
2024-02-04T02:23:39.881Z,81.80
2024-02-04T02:26:07.931Z,78.88
2024-02-04T02:28:34.712Z,79.28
2024-02-04T02:31:04.510Z,83.63
2024-02-04T02:33:33.310Z,86.93
2024-02-04T02:36:03.567Z,80.88
2024-02-04T02:38:38.583Z,87.68
2024-02-04T02:41:09.742Z,84.63
2024-02-04T02:43:40.837Z,86.90
2024-02-04T02:46:08.898Z,84.53
2024-02-04T02:48:36.860Z,89.35
2024-02-04T02:51:03.809Z,82.30
2024-02-04T02:53:30.618Z,89.18
2024-02-04T02:55:57.435Z,91.55
2024-02-04T02:58:24.216Z,89.80
2024-02-04T03:00:51.038Z,88.85
2024-02-04T03:03:17.862Z,87.45
2024-02-04T03:05:44.651Z,93.38
2024-02-04T03:08:11.439Z,94.57
2024-02-04T03:10:38.183Z,92.15
2024-02-04T03:13:05.131Z,82.10
2024-02-04T03:15:32.005Z,84.13
2024-02-04T03:17:58.904Z,85.75
2024-02-04T03:20:25.721Z,78.60
2024-02-04T03:22:52.596Z,79.32
2024-02-04T03:25:19.431Z,83.35
2024-02-04T03:27:46.271Z,81.75
2024-02-04T03:30:13.219Z,68.68
2024-02-04T03:32:40.059Z,65.72
2024-02-04T03:35:07.083Z,66.45
2024-02-04T03:37:33.907Z,61.35
2024-02-04T03:40:00.909Z,54.47
2024-02-04T03:42:27.897Z,55.05
2024-02-04T03:44:55.441Z,57.30
2024-02-04T03:47:22.188Z,67.63
2024-02-04T03:49:49.049Z,63.80
2024-02-04T03:52:15.862Z,65.45
2024-02-04T03:54:42.706Z,63.58
2024-02-04T03:57:09.469Z,57.72
2024-02-04T03:59:36.208Z,62.53
2024-02-04T04:02:03.014Z,51.97
2024-02-04T04:04:30.080Z,47.10
2024-02-04T04:06:57.060Z,49.05
2024-02-04T04:09:23.967Z,49.03
2024-02-04T04:11:50.875Z,39.45
2024-02-04T04:14:17.684Z,36.17
2024-02-04T04:16:44.506Z,41.70
2024-02-04T04:19:11.499Z,39.15
2024-02-04T04:21:39.288Z,42.13
2024-02-04T04:24:06.447Z,39.97
2024-02-04T04:26:33.253Z,39.08
2024-02-04T04:29:00.073Z,37.05
2024-02-04T04:31:26.918Z,38.78
2024-02-04T04:33:54.009Z,36.78
2024-02-04T04:36:20.933Z,34.40
2024-02-04T04:38:47.794Z,35.88
2024-02-04T04:41:14.622Z,35.95
2024-02-04T04:43:41.417Z,40.00
2024-02-04T04:46:08.259Z,36.03
2024-02-04T04:48:35.274Z,41.72
2024-02-04T04:51:02.117Z,38.63
2024-02-04T04:53:28.943Z,37.78
2024-02-04T04:55:55.786Z,39.72
2024-02-04T04:58:22.569Z,40.28
2024-02-04T05:00:49.471Z,42.60
2024-02-04T05:03:16.343Z,39.83
2024-02-04T05:05:43.110Z,43.45
2024-02-04T05:08:09.963Z,40.65
2024-02-04T05:10:36.791Z,44.30
2024-02-04T05:13:03.710Z,45.28
2024-02-04T05:15:30.567Z,45.45
2024-02-04T05:17:57.411Z,43.58
2024-02-04T05:20:24.223Z,40.60
2024-02-04T05:22:51.025Z,38.50
2024-02-04T05:25:17.842Z,36.00
2024-02-04T05:27:44.764Z,43.15
2024-02-04T05:30:12.216Z,40.30
2024-02-04T05:32:39.068Z,31.52
2024-02-04T05:35:06.134Z,33.45
2024-02-04T05:37:32.893Z,30.48
2024-02-04T05:39:59.729Z,30.67
2024-02-04T05:42:26.607Z,32.47
2024-02-04T05:44:53.421Z,29.38
2024-02-04T05:47:20.234Z,30.65
2024-02-04T05:49:47.238Z,26.70
2024-02-04T05:52:14.285Z,27.08
2024-02-04T05:54:41.216Z,26.27
2024-02-04T05:57:08.439Z,27.30
2024-02-04T05:59:35.636Z,29.48
2024-02-04T06:02:02.476Z,27.38
2024-02-04T06:04:31.186Z,28.13
2024-02-04T06:06:58.089Z,27.70
2024-02-04T06:09:24.978Z,27.88
2024-02-04T06:11:51.816Z,29.70
2024-02-04T06:14:18.592Z,26.10
2024-02-04T06:16:45.342Z,27.45
2024-02-04T06:19:14.994Z,26.73
2024-02-04T06:21:41.924Z,30.27
2024-02-04T06:24:08.773Z,27.90
2024-02-04T06:26:38.974Z,29.35
2024-02-04T06:29:05.810Z,29.73
2024-02-04T06:31:32.587Z,27.83
2024-02-04T06:33:59.575Z,26.90
2024-02-04T06:36:26.489Z,29.25
2024-02-04T06:38:53.350Z,24.50
2024-02-04T06:41:20.164Z,28.33
2024-02-04T06:43:46.976Z,34.85
2024-02-04T06:46:13.893Z,32.72
2024-02-04T06:48:40.733Z,32.97
2024-02-04T06:51:07.529Z,32.22
2024-02-04T06:53:34.766Z,34.75
2024-02-04T06:56:01.560Z,30.20
2024-02-04T06:58:28.364Z,33.65
2024-02-04T07:00:55.189Z,31.92
2024-02-04T07:03:22.193Z,34.95
2024-02-04T07:05:49.074Z,34.45
2024-02-04T07:08:15.876Z,41.67
2024-02-04T07:10:42.717Z,37.38
2024-02-04T07:13:09.802Z,37.75
2024-02-04T07:15:36.697Z,38.25
2024-02-04T07:18:03.691Z,38.33
2024-02-04T07:20:30.554Z,37.38
2024-02-04T07:22:57.397Z,38.58
2024-02-04T07:25:24.135Z,40.50
2024-02-04T07:27:50.964Z,36.25
2024-02-04T07:30:18.347Z,35.70
2024-02-04T07:32:45.228Z,35.53
2024-02-04T07:35:12.200Z,35.10
2024-02-04T07:37:39.046Z,31.88
2024-02-04T07:40:06.651Z,35.10
2024-02-04T07:42:33.707Z,32.65
2024-02-04T07:45:00.489Z,31.33
2024-02-04T07:47:27.283Z,31.45
2024-02-04T07:49:54.263Z,38.13
2024-02-04T07:52:21.112Z,28.20
2024-02-04T07:54:48.069Z,26.67
2024-02-04T07:57:14.854Z,30.88
2024-02-04T07:59:41.640Z,32.65
2024-02-04T08:02:08.491Z,33.58
2024-02-04T08:04:35.547Z,36.35
2024-02-04T08:07:03.278Z,30.90
2024-02-04T08:09:30.173Z,35.00
2024-02-04T08:11:59.847Z,33.17
2024-02-04T08:14:26.953Z,26.10
2024-02-04T08:16:53.789Z,25.35
2024-02-04T08:19:20.756Z,27.58
2024-02-04T08:21:47.664Z,29.05
2024-02-04T08:24:14.462Z,27.17
2024-02-04T08:26:41.377Z,28.05
2024-02-04T08:29:08.162Z,25.65
2024-02-04T08:31:35.018Z,25.67
2024-02-04T08:34:01.961Z,20.55
2024-02-04T08:36:28.816Z,19.92
2024-02-04T08:38:55.663Z,23.80
2024-02-04T08:41:22.423Z,17.05
2024-02-04T08:43:49.248Z,20.33
2024-02-04T08:46:16.158Z,23.38
2024-02-04T08:48:43.304Z,26.08
2024-02-04T08:51:13.472Z,28.20
2024-02-04T08:53:40.719Z,25.63
2024-02-04T08:56:08.025Z,25.20
2024-02-04T08:58:34.909Z,24.80
2024-02-04T09:01:01.744Z,27.15
2024-02-04T09:03:28.662Z,30.70
2024-02-04T09:05:55.487Z,28.85
2024-02-04T09:08:22.335Z,26.42
2024-02-04T09:10:49.184Z,28.88
2024-02-04T09:13:19.095Z,28.08
2024-02-04T09:15:45.973Z,28.35
2024-02-04T09:18:12.851Z,29.88
2024-02-04T09:20:39.837Z,31.05
2024-02-04T09:23:06.666Z,31.67
2024-02-04T09:25:33.602Z,30.45
2024-02-04T09:28:00.604Z,30.02
2024-02-04T09:30:27.616Z,32.15
2024-02-04T09:32:54.674Z,30.90
2024-02-04T09:35:21.785Z,33.92
2024-02-04T09:37:48.827Z,40.25
2024-02-04T09:40:16.074Z,35.53
2024-02-04T09:42:43.076Z,32.08
2024-02-04T09:45:11.014Z,37.38
2024-02-04T09:47:40.044Z,34.63
2024-02-04T09:50:07.419Z,42.00
2024-02-04T09:52:37.610Z,36.72
2024-02-04T09:55:06.102Z,31.50
2024-02-04T09:57:35.913Z,45.40
2024-02-04T10:00:06.438Z,31.40
2024-02-04T10:02:34.086Z,37.83
2024-02-04T10:05:01.453Z,34.35
2024-02-04T10:07:28.598Z,37.90
2024-02-04T10:09:56.315Z,41.17
2024-02-04T10:12:23.330Z,38.67
2024-02-04T10:14:53.255Z,32.88
2024-02-04T10:17:20.982Z,35.17
2024-02-04T10:19:50.766Z,34.92
2024-02-04T10:22:17.824Z,35.35
2024-02-04T10:24:44.905Z,41.42
2024-02-04T10:27:16.292Z,42.08
2024-02-04T10:29:49.643Z,36.58
2024-02-04T10:32:21.788Z,37.08
2024-02-04T10:34:51.286Z,38.00
2024-02-04T10:37:18.320Z,39.90
2024-02-04T10:39:45.234Z,41.53
2024-02-04T10:42:14.423Z,44.33
2024-02-04T10:44:46.529Z,35.55
2024-02-04T10:47:18.032Z,40.60
2024-02-04T10:49:52.277Z,39.95
2024-02-04T10:52:19.655Z,36.65
2024-02-04T10:54:47.682Z,37.00
2024-02-04T10:57:20.110Z,46.53
2024-02-04T10:59:49.455Z,39.75
2024-02-04T11:02:21.044Z,37.13
2024-02-04T11:04:50.709Z,39.28
2024-02-04T11:07:19.289Z,43.97
2024-02-04T11:09:47.763Z,41.30
2024-02-04T11:12:17.749Z,37.45
2024-02-04T11:14:51.763Z,40.78
2024-02-04T11:17:27.812Z,39.17
2024-02-04T11:20:27.240Z,47.53
2024-02-04T11:22:54.018Z,49.00
2024-02-04T11:25:39.640Z,50.90
2024-02-04T11:28:07.244Z,44.38
2024-02-04T11:30:35.384Z,37.63
2024-02-04T11:33:02.668Z,42.88
2024-02-04T11:35:29.744Z,44.05
2024-02-04T11:37:59.942Z,43.97
2024-02-04T11:40:32.478Z,46.78
2024-02-04T11:43:11.604Z,45.65
2024-02-04T11:45:40.280Z,46.47
2024-02-04T11:48:12.014Z,50.90
2024-02-04T11:50:40.583Z,50.88
2024-02-04T11:53:12.899Z,48.13
2024-02-04T11:55:45.442Z,60.63
2024-02-04T11:58:13.972Z,46.45
2024-02-04T12:00:44.520Z,55.78
2024-02-04T12:03:11.413Z,57.40
2024-02-04T12:05:39.213Z,50.90
2024-02-04T12:08:08.136Z,55.30
2024-02-04T12:10:37.092Z,59.13
2024-02-04T12:13:05.431Z,56.15
2024-02-04T12:15:33.462Z,56.38
2024-02-04T12:18:13.565Z,53.97
2024-02-04T12:20:40.568Z,53.90
2024-02-04T12:23:08.424Z,56.58
2024-02-04T12:25:36.726Z,56.47
2024-02-04T12:28:04.492Z,54.80
2024-02-04T12:30:32.532Z,55.50
2024-02-04T12:33:00.988Z,58.00
2024-02-04T12:35:28.776Z,51.17
2024-02-04T12:37:57.109Z,51.22
2024-02-04T12:40:28.136Z,40.78
2024-02-04T12:43:05.706Z,47.17
2024-02-04T12:45:34.207Z,47.65
2024-02-04T12:48:01.237Z,48.83
2024-02-04T12:50:28.172Z,49.45
2024-02-04T12:53:06.894Z,51.83
2024-02-04T12:55:35.292Z,46.00
2024-02-04T12:58:13.876Z,49.55
2024-02-04T13:00:40.973Z,46.75
2024-02-04T13:03:09.079Z,45.20
2024-02-04T13:05:36.836Z,42.45
2024-02-04T13:08:05.542Z,45.05
2024-02-04T13:10:34.030Z,43.25
2024-02-04T13:13:07.984Z,49.25
2024-02-04T13:15:40.859Z,46.20
2024-02-04T13:18:09.584Z,50.33
2024-02-04T13:20:36.784Z,49.13
2024-02-04T13:23:03.618Z,41.83
2024-02-04T13:25:30.435Z,39.40
2024-02-04T13:27:57.577Z,44.58
2024-02-04T13:30:24.408Z,46.10
2024-02-04T13:32:51.954Z,46.40
2024-02-04T13:35:20.515Z,42.70
2024-02-04T13:37:49.466Z,41.42
2024-02-04T13:40:17.157Z,45.17
2024-02-04T13:42:44.596Z,41.33
2024-02-04T13:45:12.485Z,44.10
2024-02-04T13:47:39.317Z,41.30
2024-02-04T13:50:07.082Z,38.15
2024-02-04T13:52:33.993Z,32.38
2024-02-04T13:55:00.883Z,37.70
2024-02-04T13:57:27.773Z,37.65
2024-02-04T13:59:55.215Z,43.25
2024-02-04T14:02:22.051Z,40.25
2024-02-04T14:04:48.896Z,38.10
2024-02-04T14:07:15.818Z,38.78
2024-02-04T14:09:42.669Z,34.13
2024-02-04T14:12:09.508Z,40.65
2024-02-04T14:14:36.249Z,39.45
2024-02-04T14:17:02.974Z,40.83
2024-02-04T14:19:29.798Z,38.70
2024-02-04T14:21:56.633Z,38.20
2024-02-04T14:24:23.491Z,34.50
2024-02-04T14:26:56.967Z,39.88
2024-02-04T14:29:23.740Z,39.65
2024-02-04T14:31:50.624Z,34.95
2024-02-04T14:34:17.470Z,36.03
2024-02-04T14:36:44.448Z,38.45
2024-02-04T14:39:11.281Z,36.78
2024-02-04T14:41:38.600Z,35.10
2024-02-04T14:44:05.584Z,39.55
2024-02-04T14:46:32.403Z,42.15
2024-02-04T14:48:59.325Z,45.35
2024-02-04T14:51:26.124Z,45.97
2024-02-04T14:53:52.928Z,54.95
2024-02-04T14:56:19.719Z,50.33
2024-02-04T14:58:46.523Z,60.42
2024-02-04T15:01:13.369Z,55.75
2024-02-04T15:03:40.188Z,64.75
2024-02-04T15:06:07.146Z,56.50
2024-02-04T15:08:34.054Z,58.97
2024-02-04T15:11:00.831Z,59.08
2024-02-04T15:13:33.908Z,64.57
2024-02-04T15:16:01.522Z,59.15
2024-02-04T15:18:28.475Z,62.20
2024-02-04T15:20:55.504Z,64.45
2024-02-04T15:23:22.634Z,62.75
2024-02-04T15:25:49.504Z,64.95
2024-02-04T15:28:16.820Z,63.50
2024-02-04T15:30:43.877Z,63.80
2024-02-04T15:33:10.870Z,58.17
2024-02-04T15:35:37.893Z,61.70
2024-02-04T15:38:04.814Z,70.85
2024-02-04T15:40:31.546Z,59.42
2024-02-04T15:42:58.408Z,60.10
2024-02-04T15:45:25.243Z,63.63
2024-02-04T15:47:52.776Z,64.22
2024-02-04T15:50:20.081Z,66.57
2024-02-04T15:52:50.863Z,70.63
2024-02-04T15:55:18.828Z,63.47
2024-02-04T15:57:50.723Z,62.90
2024-02-04T16:00:21.873Z,60.97
2024-02-04T16:02:49.354Z,67.60
2024-02-04T16:05:17.046Z,66.88
2024-02-04T16:07:44.744Z,59.90
2024-02-04T16:10:19.728Z,67.45
2024-02-04T16:12:55.436Z,66.78
2024-02-04T16:15:30.193Z,66.00
2024-02-04T16:17:57.642Z,67.07
2024-02-04T16:20:24.930Z,69.45
2024-02-04T16:22:51.747Z,69.25
2024-02-04T16:25:19.576Z,69.25
2024-02-04T16:27:46.812Z,75.72
2024-02-04T16:30:14.088Z,72.32
2024-02-04T16:32:41.320Z,71.20
2024-02-04T16:35:09.092Z,70.63
2024-02-04T16:37:36.141Z,74.50
2024-02-04T16:40:03.013Z,78.18
2024-02-04T16:42:30.000Z,69.03
2024-02-04T16:44:56.773Z,69.93
2024-02-04T16:47:23.541Z,69.45
2024-02-04T16:49:50.334Z,68.68
2024-02-04T16:52:17.154Z,77.22
2024-02-04T16:54:43.892Z,75.00
2024-02-04T16:57:11.262Z,74.85
2024-02-04T16:59:38.019Z,69.03
2024-02-04T17:02:05.301Z,75.40
2024-02-04T17:04:32.460Z,75.25
2024-02-04T17:06:59.805Z,71.88
2024-02-04T17:09:27.009Z,73.47
2024-02-04T17:11:53.973Z,67.07
2024-02-04T17:14:21.174Z,69.43
2024-02-04T17:17:06.166Z,74.85
2024-02-04T17:19:59.501Z,73.03
2024-02-04T17:22:27.127Z,67.88
2024-02-04T17:24:56.757Z,73.40
2024-02-04T17:27:25.885Z,78.25
2024-02-04T17:29:52.973Z,73.30
2024-02-04T17:32:20.009Z,75.03
2024-02-04T17:34:47.059Z,77.72
2024-02-04T17:37:13.969Z,74.32
2024-02-04T17:39:40.764Z,81.03
2024-02-04T17:42:07.607Z,76.55
2024-02-04T17:44:34.355Z,83.70
2024-02-04T17:47:01.659Z,75.63
2024-02-04T17:49:28.886Z,76.57
2024-02-04T17:51:55.751Z,78.05
2024-02-04T17:54:22.590Z,77.10
2024-02-04T17:56:49.414Z,82.15
2024-02-04T17:59:16.198Z,81.25
2024-02-04T18:01:43.096Z,80.47
2024-02-04T18:04:10.167Z,82.10
2024-02-04T18:06:40.607Z,80.43
2024-02-04T18:09:08.205Z,83.47
2024-02-04T18:11:35.087Z,81.20
2024-02-04T18:14:01.867Z,80.05
2024-02-04T18:16:29.481Z,81.97
2024-02-04T18:18:56.407Z,83.05
2024-02-04T18:21:24.332Z,85.57
2024-02-04T18:23:52.418Z,85.90
2024-02-04T18:26:23.168Z,88.85
2024-02-04T18:28:50.912Z,83.25
2024-02-04T18:31:18.027Z,85.95
2024-02-04T18:33:45.244Z,93.28
2024-02-04T18:36:13.358Z,91.80
2024-02-04T18:38:40.127Z,84.15
2024-02-04T18:41:10.077Z,82.10
2024-02-04T18:43:37.141Z,90.25
2024-02-04T18:46:03.960Z,93.72
2024-02-04T18:48:30.853Z,87.53
2024-02-04T18:50:58.539Z,88.43
2024-02-04T18:53:25.514Z,86.32
2024-02-04T18:55:52.348Z,88.00
2024-02-04T18:58:19.158Z,81.97
2024-02-04T19:00:46.001Z,87.10
2024-02-04T19:03:12.906Z,92.80
2024-02-04T19:05:40.497Z,94.65
2024-02-04T19:08:08.031Z,93.40
2024-02-04T19:10:36.252Z,87.75
2024-02-04T19:13:03.167Z,90.43
2024-02-04T19:15:30.527Z,97.00
2024-02-04T19:17:57.340Z,100.43
2024-02-04T19:20:24.159Z,99.30
2024-02-04T19:22:51.650Z,93.88
2024-02-04T19:25:19.848Z,97.82
2024-02-04T19:27:51.433Z,103.15
2024-02-04T19:30:19.528Z,96.22
2024-02-04T19:32:47.248Z,96.15
2024-02-04T19:35:15.557Z,97.40
2024-02-04T19:37:43.574Z,97.43
2024-02-04T19:40:12.312Z,104.97
2024-02-04T19:42:40.225Z,107.38
2024-02-04T19:45:08.073Z,102.05
2024-02-04T19:47:34.905Z,95.35
2024-02-04T19:50:02.315Z,101.40
2024-02-04T19:52:29.252Z,102.85
2024-02-04T19:54:56.085Z,101.20
2024-02-04T19:57:22.864Z,101.80
2024-02-04T19:59:49.600Z,105.90
2024-02-04T20:02:16.357Z,102.80
2024-02-04T20:04:43.261Z,96.88
2024-02-04T20:07:10.182Z,102.05
2024-02-04T20:09:37.034Z,104.70
2024-02-04T20:12:07.894Z,102.25
2024-02-04T20:14:35.209Z,103.70
2024-02-04T20:17:01.994Z,104.30
2024-02-04T20:19:28.828Z,110.65
2024-02-04T20:21:55.752Z,107.10
2024-02-04T20:24:22.600Z,104.65
2024-02-04T20:26:49.466Z,101.95
2024-02-04T20:29:16.199Z,104.50
2024-02-04T20:31:43.068Z,100.25
2024-02-04T20:34:10.072Z,101.20
2024-02-04T20:36:37.543Z,94.38
2024-02-04T20:39:04.435Z,95.32
2024-02-04T20:41:31.238Z,100.25
2024-02-04T20:43:58.131Z,97.32
2024-02-04T20:46:25.072Z,96.78
2024-02-04T20:48:51.948Z,97.43
2024-02-04T20:51:18.717Z,100.97
2024-02-04T20:53:45.590Z,95.10
2024-02-04T20:56:16.364Z,100.28
2024-02-04T20:58:43.164Z,93.57
2024-02-04T21:01:10.654Z,100.32
2024-02-04T21:03:37.581Z,91.65
2024-02-04T21:06:04.472Z,94.72
2024-02-04T21:08:31.271Z,92.15
2024-02-04T21:10:58.054Z,94.70
2024-02-04T21:13:24.945Z,93.78
2024-02-04T21:15:51.794Z,88.35
2024-02-04T21:18:18.683Z,92.22
2024-02-04T21:20:45.490Z,92.25
2024-02-04T21:23:12.423Z,92.95
2024-02-04T21:25:39.258Z,93.68
2024-02-04T21:28:06.242Z,86.80
2024-02-04T21:30:33.175Z,86.65
2024-02-04T21:33:00.625Z,88.22
2024-02-04T21:35:27.402Z,83.68
2024-02-04T21:37:54.149Z,90.95
2024-02-04T21:40:23.734Z,91.45
2024-02-04T21:42:50.643Z,95.82
2024-02-04T21:45:17.797Z,95.43
2024-02-04T21:47:44.688Z,94.93
2024-02-04T21:50:11.526Z,98.45
2024-02-04T21:52:38.485Z,102.57
2024-02-04T21:55:05.592Z,95.57
2024-02-04T21:57:32.498Z,92.90
2024-02-04T21:59:59.314Z,100.18
2024-02-04T22:02:26.141Z,96.63
2024-02-04T22:04:55.629Z,98.47
2024-02-04T22:07:22.451Z,99.72
2024-02-04T22:09:49.307Z,100.85
2024-02-04T22:12:16.083Z,96.78
2024-02-04T22:14:42.857Z,105.80
2024-02-04T22:17:09.628Z,103.13
2024-02-04T22:19:36.478Z,98.05
2024-02-04T22:22:03.409Z,99.95
2024-02-04T22:24:30.181Z,97.35
2024-02-04T22:26:57.003Z,100.90
2024-02-04T22:29:23.805Z,92.57
2024-02-04T22:31:50.549Z,99.10
2024-02-04T22:34:17.347Z,101.28
2024-02-04T22:36:44.163Z,97.63
2024-02-04T22:39:11.280Z,101.28
2024-02-04T22:41:41.786Z,96.35
2024-02-04T22:44:10.126Z,99.10
2024-02-04T22:46:37.260Z,96.53
2024-02-04T22:49:04.886Z,100.63
2024-02-04T22:51:32.746Z,103.10
2024-02-04T22:53:59.571Z,103.80
2024-02-04T22:56:26.330Z,95.22
2024-02-04T22:58:53.097Z,99.13
2024-02-04T23:01:19.946Z,98.22
2024-02-04T23:03:46.854Z,100.70
2024-02-04T23:06:13.744Z,99.38
2024-02-04T23:08:40.692Z,98.47
2024-02-04T23:11:07.533Z,97.00
2024-02-04T23:13:34.408Z,95.63
2024-02-04T23:16:01.435Z,94.85
2024-02-04T23:18:28.270Z,104.80
2024-02-04T23:20:55.003Z,95.55
2024-02-04T23:23:21.736Z,99.80
2024-02-04T23:25:48.569Z,98.35
2024-02-04T23:28:15.354Z,100.78
2024-02-04T23:30:42.152Z,110.10
2024-02-04T23:33:09.019Z,104.25
2024-02-04T23:35:35.827Z,107.07
2024-02-04T23:38:02.656Z,102.45
2024-02-04T23:40:29.510Z,103.50
2024-02-04T23:42:56.367Z,106.22
2024-02-04T23:45:23.235Z,108.22
2024-02-04T23:47:50.034Z,102.22
2024-02-04T23:50:17.614Z,106.18
2024-02-04T23:52:44.569Z,108.15
2024-02-04T23:55:11.585Z,107.75
2024-02-04T23:57:39.319Z,100.80
